Caplen, Texas
Current Conditions -  °F | °C
As of 5:35 AM on Thursday 18 Dec 2014 (Local Time) from KXIH Reporting Station
Overcast Overcast  
Wind Chill: 68°   Ceiling: 9000
Heat Index: 68°   Visibility: 10mi
Dew Point: 64°   Wind: 10mph
Humidity: 88%   Direction: 160°SSE
Pressure: 30.04"   Gusts: NA
Location:  29.4994°N, 94.5234°W
Report Text: KXIH 181135Z AUTO 16009KT 10SM FEW032 SCT075 OVC090 20/18 A3004 RMK A01
Loading
Personal Weather Stations






























Interactive Weather Map New forecast layout! Learn more

10-Day Weather Forecast

Advertisements
Track Severe Weather on mobile